createdAt,value
2023-01-26T00:01:30.610Z,57.50
2023-01-26T00:03:59.713Z,53.57
2023-01-26T00:06:28.734Z,48.17
2023-01-26T00:08:58.607Z,48.77
2023-01-26T00:11:30.468Z,51.10
2023-01-26T00:14:00.871Z,53.20
2023-01-26T00:16:30.192Z,58.20
2023-01-26T00:18:59.157Z,50.43
2023-01-26T00:21:28.117Z,50.67
2023-01-26T00:23:57.100Z,50.07
2023-01-26T00:26:27.280Z,52.17
2023-01-26T00:28:57.723Z,51.10
2023-01-26T00:31:27.899Z,50.13
2023-01-26T00:33:57.841Z,53.37
2023-01-26T00:36:27.648Z,60.03
2023-01-26T00:38:56.716Z,51.50
2023-01-26T00:41:42.705Z,47.03
2023-01-26T00:44:13.136Z,47.67
2023-01-26T00:46:42.243Z,48.13
2023-01-26T00:49:11.172Z,47.80
2023-01-26T00:51:40.259Z,50.53
2023-01-26T00:54:09.023Z,47.53
2023-01-26T00:56:37.937Z,49.00
2023-01-26T00:59:07.851Z,47.40
2023-01-26T01:01:38.507Z,49.83
2023-01-26T01:04:08.640Z,52.63
2023-01-26T01:06:37.864Z,52.03
2023-01-26T01:09:06.841Z,57.00
2023-01-26T01:11:35.854Z,51.53
2023-01-26T01:14:04.968Z,54.03
2023-01-26T01:16:33.963Z,54.20
2023-01-26T01:19:04.809Z,53.77
2023-01-26T01:21:33.772Z,52.70
2023-01-26T01:24:02.815Z,60.43
2023-01-26T01:26:32.196Z,54.77
2023-01-26T01:29:01.211Z,58.60
2023-01-26T01:31:30.437Z,57.30
2023-01-26T01:33:59.756Z,54.73
2023-01-26T01:36:31.370Z,55.40
2023-01-26T01:39:01.297Z,54.50
2023-01-26T01:41:31.158Z,70.47
2023-01-26T01:44:20.922Z,55.93
2023-01-26T01:46:56.400Z,60.97
2023-01-26T01:49:29.976Z,60.97
2023-01-26T01:52:06.394Z,64.07
2023-01-26T01:54:39.072Z,63.33
2023-01-26T01:57:15.576Z,62.47
2023-01-26T01:59:48.920Z,70.33
2023-01-26T02:02:17.945Z,62.37
2023-01-26T02:04:47.778Z,58.60
2023-01-26T02:07:18.816Z,64.27
2023-01-26T02:10:05.460Z,70.13
2023-01-26T02:12:35.387Z,64.73
2023-01-26T02:15:05.237Z,58.87
2023-01-26T02:17:34.323Z,66.03
2023-01-26T02:20:09.669Z,56.10
2023-01-26T02:22:50.263Z,70.53
2023-01-26T02:25:32.908Z,74.10
2023-01-26T02:28:03.781Z,69.47
2023-01-26T02:30:34.022Z,70.07
2023-01-26T02:33:03.331Z,64.30
2023-01-26T02:35:32.673Z,68.17
2023-01-26T02:38:02.975Z,53.40
2023-01-26T02:40:39.222Z,52.97
2023-01-26T02:43:09.248Z,58.57
2023-01-26T02:45:41.662Z,62.73
2023-01-26T02:48:10.665Z,66.33
2023-01-26T02:50:38.407Z,58.40
2023-01-26T02:53:07.961Z,55.03
2023-01-26T02:55:36.166Z,54.63
2023-01-26T02:58:07.703Z,48.77
2023-01-26T03:00:40.833Z,56.13
2023-01-26T03:03:15.487Z,58.37
2023-01-26T03:05:44.375Z,63.90
2023-01-26T03:08:13.365Z,57.57
2023-01-26T03:10:42.407Z,50.50
2023-01-26T03:13:11.570Z,59.93
2023-01-26T03:15:52.888Z,52.53
2023-01-26T03:18:42.270Z,51.83
2023-01-26T03:21:30.855Z,56.37
2023-01-26T03:24:17.760Z,53.63
2023-01-26T03:27:09.907Z,57.93
2023-01-26T03:29:38.971Z,52.80
2023-01-26T03:32:09.517Z,56.17
2023-01-26T03:34:38.599Z,53.77
2023-01-26T03:37:07.640Z,54.10
2023-01-26T03:40:01.548Z,55.70
2023-01-26T03:42:48.586Z,52.27
2023-01-26T03:45:35.688Z,48.57
2023-01-26T03:48:25.428Z,45.83
2023-01-26T03:51:11.891Z,46.57
2023-01-26T03:53:58.375Z,45.50
2023-01-26T03:56:32.686Z,45.43
2023-01-26T03:59:09.420Z,46.30
2023-01-26T04:01:42.376Z,48.03
2023-01-26T04:04:30.998Z,48.80
2023-01-26T04:07:16.904Z,49.00
2023-01-26T04:09:51.565Z,46.47
2023-01-26T04:12:21.165Z,47.13
2023-01-26T04:15:18.151Z,47.27
2023-01-26T04:18:04.165Z,58.33
2023-01-26T04:20:53.516Z,51.43
2023-01-26T04:23:23.314Z,45.97
2023-01-26T04:25:53.666Z,49.10
2023-01-26T04:28:22.871Z,48.67
2023-01-26T04:30:53.224Z,49.10
2023-01-26T04:33:22.212Z,47.40
2023-01-26T04:35:53.255Z,47.00
2023-01-26T04:38:22.856Z,47.73
2023-01-26T04:40:54.998Z,55.07
2023-01-26T04:43:24.659Z,49.57
2023-01-26T04:46:01.415Z,49.80
2023-01-26T04:48:31.980Z,49.03
2023-01-26T04:51:05.095Z,44.37
2023-01-26T04:53:34.969Z,43.40
2023-01-26T04:56:04.494Z,54.97
2023-01-26T04:58:34.703Z,53.93
2023-01-26T05:01:04.412Z,50.07
2023-01-26T05:03:34.308Z,46.60
2023-01-26T05:06:05.234Z,48.33
2023-01-26T05:08:34.082Z,51.17
2023-01-26T05:11:02.828Z,46.77
2023-01-26T05:13:54.284Z,43.63
2023-01-26T05:16:58.473Z,40.23
2023-01-26T05:19:47.635Z,40.60
2023-01-26T05:22:47.155Z,39.80
2023-01-26T05:25:45.208Z,37.10
2023-01-26T05:28:15.598Z,38.47
2023-01-26T05:30:45.122Z,37.97
2023-01-26T05:33:14.321Z,36.63
2023-01-26T05:35:43.527Z,37.47
2023-01-26T05:38:14.228Z,36.60
2023-01-26T05:40:43.352Z,37.83
2023-01-26T05:43:12.786Z,36.90
2023-01-26T05:46:06.674Z,36.97
2023-01-26T05:48:35.938Z,37.57
2023-01-26T05:51:04.883Z,35.90
2023-01-26T05:53:37.506Z,35.40
2023-01-26T05:56:06.908Z,36.23
2023-01-26T05:58:37.345Z,36.30
2023-01-26T06:01:06.591Z,36.57
2023-01-26T06:03:44.858Z,34.47
2023-01-26T06:06:13.917Z,35.63
2023-01-26T06:08:55.116Z,35.73
2023-01-26T06:11:33.853Z,33.30
2023-01-26T06:14:25.108Z,32.17
2023-01-26T06:16:54.857Z,33.17
2023-01-26T06:19:23.712Z,34.47
2023-01-26T06:21:57.017Z,34.67
2023-01-26T06:24:27.811Z,33.90
2023-01-26T06:26:56.939Z,37.17
2023-01-26T06:29:25.999Z,36.40
2023-01-26T06:31:55.277Z,35.20
2023-01-26T06:34:24.365Z,34.97
2023-01-26T06:36:53.448Z,34.90
2023-01-26T06:39:29.695Z,34.23
2023-01-26T06:42:00.881Z,34.20
2023-01-26T06:44:29.801Z,34.33
2023-01-26T06:46:59.148Z,33.63
2023-01-26T06:49:28.260Z,33.50
2023-01-26T06:52:04.564Z,33.00
2023-01-26T06:54:51.746Z,33.30
2023-01-26T06:57:43.512Z,32.10
2023-01-26T07:00:31.096Z,32.00
2023-01-26T07:03:15.728Z,33.10
2023-01-26T07:05:44.929Z,33.77
2023-01-26T07:08:13.882Z,36.20
2023-01-26T07:10:44.260Z,31.97
2023-01-26T07:13:13.324Z,35.80
2023-01-26T07:15:42.403Z,33.47
2023-01-26T07:18:11.615Z,32.80
2023-01-26T07:20:40.511Z,31.70
2023-01-26T07:23:09.476Z,33.43
2023-01-26T07:25:38.593Z,33.60
2023-01-26T07:28:10.791Z,31.27
2023-01-26T07:30:39.903Z,34.37
2023-01-26T07:33:08.716Z,32.23
2023-01-26T07:35:37.924Z,29.63
2023-01-26T07:38:07.239Z,32.00
2023-01-26T07:40:36.205Z,31.97
2023-01-26T07:43:05.456Z,32.80
2023-01-26T07:45:53.561Z,38.47
2023-01-26T07:48:24.313Z,42.53
2023-01-26T07:50:53.598Z,49.67
2023-01-26T07:53:23.099Z,43.53
2023-01-26T07:55:52.268Z,37.87
2023-01-26T07:58:21.447Z,30.93
2023-01-26T08:00:51.970Z,29.50
2023-01-26T08:03:21.008Z,28.73
2023-01-26T08:05:49.806Z,31.00
2023-01-26T08:08:19.454Z,28.70
2023-01-26T08:10:48.413Z,30.07
2023-01-26T08:13:29.948Z,29.43
2023-01-26T08:16:06.684Z,29.17
2023-01-26T08:18:35.751Z,29.73
2023-01-26T08:21:05.413Z,30.30
2023-01-26T08:23:34.403Z,31.27
2023-01-26T08:26:03.679Z,30.63
2023-01-26T08:28:33.141Z,34.03
2023-01-26T08:31:07.751Z,30.63
2023-01-26T08:33:36.914Z,28.67
2023-01-26T08:36:07.667Z,27.63
2023-01-26T08:38:36.809Z,26.33
2023-01-26T08:41:06.512Z,26.97
2023-01-26T08:43:36.351Z,27.77
2023-01-26T08:46:07.576Z,28.07
2023-01-26T08:48:37.421Z,27.97
2023-01-26T08:51:08.234Z,28.10
2023-01-26T08:53:38.815Z,25.70
2023-01-26T08:56:11.546Z,25.77
2023-01-26T08:58:40.945Z,25.87
2023-01-26T09:01:15.245Z,26.63
2023-01-26T09:03:44.928Z,27.60
2023-01-26T09:06:16.152Z,27.73
2023-01-26T09:08:45.044Z,25.07
2023-01-26T09:11:14.453Z,25.13
2023-01-26T09:13:43.655Z,26.23
2023-01-26T09:16:20.456Z,25.40
2023-01-26T09:18:51.524Z,24.40
2023-01-26T09:21:20.972Z,24.10
2023-01-26T09:23:49.824Z,24.47
2023-01-26T09:26:19.184Z,27.37
2023-01-26T09:28:52.426Z,25.37
2023-01-26T09:31:23.158Z,26.90
2023-01-26T09:33:53.070Z,26.57
2023-01-26T09:36:22.256Z,26.03
2023-01-26T09:38:51.708Z,24.43
2023-01-26T09:41:36.133Z,24.53
2023-01-26T09:44:09.616Z,24.20
2023-01-26T09:46:52.997Z,23.90
2023-01-26T09:49:25.565Z,23.90
2023-01-26T09:52:00.547Z,23.20
2023-01-26T09:54:34.929Z,23.23
2023-01-26T09:57:11.388Z,21.20
2023-01-26T09:59:45.987Z,21.27
2023-01-26T10:02:26.673Z,21.53
2023-01-26T10:04:59.839Z,21.97
2023-01-26T10:07:29.178Z,22.67
2023-01-26T10:09:59.120Z,22.27
2023-01-26T10:12:31.904Z,20.87
2023-01-26T10:15:06.320Z,22.33
2023-01-26T10:17:40.437Z,21.30
2023-01-26T10:20:19.331Z,21.43
2023-01-26T10:22:51.612Z,20.60
2023-01-26T10:25:25.306Z,19.73
2023-01-26T10:27:54.916Z,19.83
2023-01-26T10:30:23.761Z,20.07
2023-01-26T10:32:54.743Z,19.67
2023-01-26T10:35:25.591Z,21.20
2023-01-26T10:37:54.725Z,19.67
2023-01-26T10:40:23.788Z,19.37
2023-01-26T10:42:58.565Z,19.57
2023-01-26T10:45:30.554Z,18.23
2023-01-26T10:48:19.273Z,18.00
2023-01-26T10:50:49.549Z,18.30
2023-01-26T10:53:20.412Z,17.53
2023-01-26T10:56:02.018Z,18.30
2023-01-26T10:58:48.251Z,27.57
2023-01-26T11:01:27.599Z,19.17
2023-01-26T11:04:07.703Z,19.63
2023-01-26T11:06:37.045Z,21.80
2023-01-26T11:09:18.544Z,22.80
2023-01-26T11:12:00.914Z,20.67
2023-01-26T11:14:30.984Z,20.23
2023-01-26T11:17:15.450Z,21.90
2023-01-26T11:20:26.708Z,22.93
2023-01-26T11:23:04.895Z,19.10
2023-01-26T11:25:40.862Z,19.63
2023-01-26T11:28:31.538Z,19.27
2023-01-26T11:31:17.595Z,21.40
2023-01-26T11:33:58.769Z,23.43
2023-01-26T11:36:41.967Z,22.57
2023-01-26T11:39:21.424Z,26.40
2023-01-26T11:42:08.802Z,26.40
2023-01-26T11:44:57.902Z,25.37
2023-01-26T11:47:47.412Z,24.83
2023-01-26T11:50:35.717Z,24.73
2023-01-26T11:53:37.192Z,22.43
2023-01-26T11:56:29.021Z,20.27
2023-01-26T11:59:03.292Z,21.30
2023-01-26T12:01:38.941Z,20.97
2023-01-26T12:04:16.141Z,21.50
2023-01-26T12:06:49.027Z,21.03
2023-01-26T12:09:22.981Z,20.83
2023-01-26T12:11:59.492Z,21.03
2023-01-26T12:14:34.678Z,20.40
2023-01-26T12:17:33.843Z,19.93
2023-01-26T12:20:13.087Z,19.47
2023-01-26T12:22:48.043Z,19.57
2023-01-26T12:25:28.459Z,20.10
2023-01-26T12:28:07.850Z,20.27
2023-01-26T12:30:42.423Z,21.63
2023-01-26T12:33:12.841Z,20.80
2023-01-26T12:35:59.140Z,19.37
2023-01-26T12:38:42.013Z,19.73
2023-01-26T12:41:16.840Z,19.53
2023-01-26T12:44:02.149Z,20.87
2023-01-26T12:46:36.981Z,19.87
2023-01-26T12:49:13.948Z,20.20
2023-01-26T12:51:47.460Z,19.80
2023-01-26T12:54:22.282Z,20.77
2023-01-26T12:56:54.535Z,20.40
2023-01-26T12:59:46.790Z,20.60
2023-01-26T13:02:32.451Z,20.43
2023-01-26T13:05:03.342Z,19.50
2023-01-26T13:07:34.900Z,18.37
2023-01-26T13:10:44.548Z,17.13
2023-01-26T13:13:31.394Z,15.47
2023-01-26T13:16:34.824Z,15.07
2023-01-26T13:19:04.885Z,16.40
2023-01-26T13:21:46.069Z,16.60
2023-01-26T13:24:46.928Z,16.83
2023-01-26T13:27:34.219Z,16.57
2023-01-26T13:30:03.610Z,18.43
2023-01-26T13:33:05.510Z,17.17
2023-01-26T13:35:36.799Z,17.00
2023-01-26T13:38:15.804Z,18.37
2023-01-26T13:40:48.136Z,16.73
2023-01-26T13:43:27.342Z,16.30
2023-01-26T13:46:15.717Z,16.87
2023-01-26T13:48:48.823Z,16.23
2023-01-26T13:51:20.336Z,16.77
2023-01-26T13:53:55.037Z,15.67
2023-01-26T13:56:30.342Z,16.90
2023-01-26T13:59:08.570Z,16.60
2023-01-26T14:01:44.059Z,17.37
2023-01-26T14:04:20.027Z,16.43
2023-01-26T14:06:54.240Z,17.10
2023-01-26T14:09:23.675Z,15.30
2023-01-26T14:11:59.934Z,15.90
2023-01-26T14:14:30.976Z,16.13
2023-01-26T14:17:00.827Z,17.27
2023-01-26T14:19:32.272Z,17.00
2023-01-26T14:22:02.358Z,16.20
2023-01-26T14:24:35.198Z,16.83
2023-01-26T14:27:05.514Z,15.87
2023-01-26T14:29:39.653Z,16.67
2023-01-26T14:32:16.280Z,16.20
2023-01-26T14:34:55.380Z,17.03
2023-01-26T14:37:24.403Z,16.50
2023-01-26T14:40:12.170Z,15.60
2023-01-26T14:42:41.980Z,17.00
2023-01-26T14:45:14.174Z,17.70
2023-01-26T14:47:45.556Z,18.17
2023-01-26T14:50:28.412Z,17.60
2023-01-26T14:52:57.659Z,17.87
2023-01-26T14:55:29.546Z,18.67
2023-01-26T14:58:00.059Z,17.90
2023-01-26T15:00:32.324Z,18.03
2023-01-26T15:03:06.204Z,17.80
2023-01-26T15:05:39.267Z,17.03
2023-01-26T15:08:21.542Z,18.03
2023-01-26T15:11:18.670Z,17.40
2023-01-26T15:13:49.440Z,18.73
2023-01-26T15:16:21.408Z,18.33
2023-01-26T15:19:00.617Z,20.87
2023-01-26T15:21:34.828Z,21.90
2023-01-26T15:24:05.692Z,23.90
2023-01-26T15:26:38.329Z,25.17
2023-01-26T15:29:19.088Z,25.77
2023-01-26T15:31:54.048Z,22.90
2023-01-26T15:34:34.768Z,24.47
2023-01-26T15:37:26.130Z,23.60
2023-01-26T15:39:55.339Z,24.73
2023-01-26T15:42:27.847Z,24.73
2023-01-26T15:44:56.990Z,22.80
2023-01-26T15:47:26.075Z,21.63
2023-01-26T15:49:55.139Z,20.07
2023-01-26T15:52:30.441Z,19.10
2023-01-26T15:54:59.641Z,18.70
2023-01-26T15:57:30.714Z,19.77
2023-01-26T16:00:00.321Z,19.03
2023-01-26T16:02:30.331Z,18.27
2023-01-26T16:04:59.412Z,20.30
2023-01-26T16:07:29.902Z,19.47
2023-01-26T16:10:01.024Z,18.90
2023-01-26T16:12:32.108Z,21.47
2023-01-26T16:15:01.443Z,21.63
2023-01-26T16:17:30.463Z,21.97
2023-01-26T16:20:00.324Z,21.27
2023-01-26T16:22:31.112Z,23.07
2023-01-26T16:25:00.112Z,26.63
2023-01-26T16:27:29.051Z,30.03
2023-01-26T16:29:58.177Z,27.53
2023-01-26T16:32:29.684Z,27.17
2023-01-26T16:34:59.286Z,24.90
2023-01-26T16:37:28.165Z,24.43
2023-01-26T16:39:58.724Z,25.33
2023-01-26T16:42:27.759Z,23.20
2023-01-26T16:44:56.804Z,21.50
2023-01-26T16:47:25.561Z,21.47
2023-01-26T16:49:54.511Z,21.63
2023-01-26T16:52:23.274Z,21.53
2023-01-26T16:54:54.092Z,20.60
2023-01-26T16:57:24.716Z,21.27
2023-01-26T16:59:53.806Z,30.13
2023-01-26T17:02:26.531Z,20.57
2023-01-26T17:04:55.557Z,23.67
2023-01-26T17:07:24.415Z,20.20
2023-01-26T17:09:53.371Z,20.87
2023-01-26T17:12:24.147Z,27.37
2023-01-26T17:14:53.681Z,21.23
2023-01-26T17:17:25.129Z,21.30
2023-01-26T17:19:54.317Z,20.30
2023-01-26T17:22:23.537Z,22.37
2023-01-26T17:24:52.588Z,21.57
2023-01-26T17:27:21.610Z,21.93
2023-01-26T17:29:52.198Z,22.60
2023-01-26T17:32:25.312Z,25.63
2023-01-26T17:34:54.979Z,22.87
2023-01-26T17:37:27.625Z,24.37
2023-01-26T17:39:57.849Z,24.37
2023-01-26T17:42:27.694Z,24.33
2023-01-26T17:44:58.289Z,23.07
2023-01-26T17:47:27.420Z,24.93
2023-01-26T17:49:56.280Z,24.93
2023-01-26T17:52:25.355Z,25.10
2023-01-26T17:54:54.715Z,27.20
2023-01-26T17:57:23.789Z,25.17
2023-01-26T17:59:52.832Z,28.13
2023-01-26T18:02:23.216Z,30.80
2023-01-26T18:04:52.211Z,28.63
2023-01-26T18:07:21.364Z,26.70
2023-01-26T18:09:50.372Z,31.13
2023-01-26T18:12:19.492Z,26.67
2023-01-26T18:14:48.509Z,25.00
2023-01-26T18:17:17.588Z,25.50
2023-01-26T18:19:48.084Z,24.67
2023-01-26T18:22:17.205Z,24.20
2023-01-26T18:24:46.336Z,23.87
2023-01-26T18:27:15.475Z,25.03
2023-01-26T18:29:44.504Z,23.80
2023-01-26T18:32:13.658Z,25.13
2023-01-26T18:34:43.547Z,25.23
2023-01-26T18:37:14.516Z,25.60
2023-01-26T18:39:43.879Z,26.87
2023-01-26T18:42:12.955Z,25.60
2023-01-26T18:44:42.190Z,27.70
2023-01-26T18:47:11.568Z,26.17
2023-01-26T18:49:40.918Z,26.27
2023-01-26T18:52:10.451Z,27.30
2023-01-26T18:54:41.036Z,27.20
2023-01-26T18:57:10.342Z,26.53
2023-01-26T18:59:40.079Z,27.17
2023-01-26T19:02:09.824Z,27.53
2023-01-26T19:04:40.789Z,27.83
2023-01-26T19:07:10.419Z,29.67
2023-01-26T19:09:41.280Z,26.80
2023-01-26T19:12:10.419Z,27.47
2023-01-26T19:14:39.524Z,29.97
2023-01-26T19:17:08.847Z,25.23
2023-01-26T19:19:39.664Z,24.07
2023-01-26T19:22:08.645Z,24.10
2023-01-26T19:24:37.666Z,23.90
2023-01-26T19:27:08.786Z,24.23
2023-01-26T19:29:37.944Z,24.23
2023-01-26T19:35:15.720Z,24.57
2023-01-26T19:37:44.593Z,23.23
2023-01-26T19:40:14.521Z,22.83
2023-01-26T19:43:24.820Z,25.30
2023-01-26T19:45:57.680Z,27.13
2023-01-26T19:48:28.217Z,27.83
2023-01-26T19:51:05.147Z,33.17
2023-01-26T19:53:35.980Z,33.77
2023-01-26T19:56:10.079Z,33.57
2023-01-26T19:58:39.411Z,34.03
2023-01-26T20:01:12.658Z,33.53
2023-01-26T20:03:41.972Z,32.00
2023-01-26T20:06:17.015Z,29.83
2023-01-26T20:08:46.358Z,30.63
2023-01-26T20:11:15.475Z,29.50
2023-01-26T20:13:44.907Z,29.63
2023-01-26T20:16:15.717Z,30.00
2023-01-26T20:18:45.297Z,29.93
2023-01-26T20:21:14.601Z,31.13
2023-01-26T20:23:53.977Z,28.60
2023-01-26T20:26:28.661Z,29.97
2023-01-26T20:29:03.494Z,33.63
2023-01-26T20:31:42.182Z,31.23
2023-01-26T20:34:14.736Z,29.77
2023-01-26T20:36:45.311Z,30.97
2023-01-26T20:39:25.331Z,30.30
2023-01-26T20:41:56.910Z,31.63
2023-01-26T20:44:27.466Z,29.00
2023-01-26T20:47:00.513Z,29.90
2023-01-26T20:49:32.716Z,30.33
2023-01-26T20:52:02.443Z,30.63
2023-01-26T20:54:34.176Z,28.33
2023-01-26T20:57:05.146Z,29.67
2023-01-26T20:59:34.253Z,28.00
2023-01-26T21:02:05.422Z,29.10
2023-01-26T21:04:34.723Z,27.00
2023-01-26T21:07:03.673Z,27.20
2023-01-26T21:09:33.063Z,25.53
2023-01-26T21:12:02.212Z,26.17
2023-01-26T21:14:34.097Z,25.63
2023-01-26T21:17:07.710Z,24.27
2023-01-26T21:19:38.323Z,24.23
2023-01-26T21:22:08.053Z,24.00
2023-01-26T21:24:37.291Z,23.50
2023-01-26T21:27:06.932Z,23.53
2023-01-26T21:29:36.059Z,24.73
2023-01-26T21:32:07.109Z,24.87
2023-01-26T21:34:36.263Z,25.53
2023-01-26T21:37:06.444Z,26.77
2023-01-26T21:39:35.468Z,25.67
2023-01-26T21:42:04.553Z,27.47
2023-01-26T21:44:54.690Z,27.63
2023-01-26T21:47:24.984Z,28.30
2023-01-26T21:49:53.904Z,28.80
2023-01-26T21:52:40.109Z,29.37
2023-01-26T21:55:09.410Z,28.13
2023-01-26T21:57:55.662Z,29.23
2023-01-26T22:00:24.624Z,27.67
2023-01-26T22:02:55.963Z,30.37
2023-01-26T22:05:24.839Z,28.37
2023-01-26T22:07:53.655Z,30.47
2023-01-26T22:10:22.675Z,28.80
2023-01-26T22:12:51.871Z,27.07
2023-01-26T22:15:20.848Z,25.30
2023-01-26T22:17:49.875Z,26.07
2023-01-26T22:23:23.061Z,23.87
2023-01-26T22:25:52.167Z,24.33
2023-01-26T22:28:20.824Z,24.60
2023-01-26T22:30:49.593Z,23.20
2023-01-26T22:33:18.433Z,23.87
2023-01-26T22:35:49.123Z,22.37
2023-01-26T22:38:18.320Z,23.13
2023-01-26T22:40:47.013Z,23.17
2023-01-26T22:43:15.898Z,23.90
2023-01-26T22:45:44.670Z,24.57
2023-01-26T22:48:13.752Z,24.13
2023-01-26T22:50:42.767Z,22.57
2023-01-26T22:53:13.838Z,24.03
2023-01-26T22:55:43.642Z,23.37
2023-01-26T22:58:12.863Z,22.07
2023-01-26T23:00:41.584Z,22.60
2023-01-26T23:03:10.441Z,22.97
2023-01-26T23:05:39.171Z,22.90
2023-01-26T23:08:08.483Z,22.70
2023-01-26T23:10:39.020Z,24.27
2023-01-26T23:13:08.182Z,23.37
2023-01-26T23:15:38.438Z,23.63
2023-01-26T23:18:07.415Z,24.70
2023-01-26T23:20:36.278Z,24.03
2023-01-26T23:23:05.014Z,24.30
2023-01-26T23:25:51.658Z,24.07
2023-01-26T23:28:24.874Z,23.50
2023-01-26T23:30:55.165Z,23.63
2023-01-26T23:33:25.437Z,22.13
2023-01-26T23:35:54.204Z,22.73
2023-01-26T23:38:24.926Z,24.43
2023-01-26T23:40:54.135Z,23.60
2023-01-26T23:43:25.281Z,23.53
2023-01-26T23:45:56.433Z,25.43
2023-01-26T23:48:26.498Z,23.40
2023-01-26T23:50:58.744Z,25.03
2023-01-26T23:53:28.303Z,24.40
2023-01-26T23:55:58.629Z,23.40
2023-01-26T23:58:29.059Z,25.73
